sensor_id;sensor_type;location;lat;lon;timestamp;temperature;humidity
5176;DHT22;2607;50.934;6.934;2022-12-08T00:01:10;4.90;99.90
5176;DHT22;2607;50.934;6.934;2022-12-08T00:03:37;4.90;99.90
5176;DHT22;2607;50.934;6.934;2022-12-08T00:06:04;4.90;99.90
5176;DHT22;2607;50.934;6.934;2022-12-08T00:08:49;4.90;99.90
5176;DHT22;2607;50.934;6.934;2022-12-08T00:11:33;4.90;99.90
5176;DHT22;2607;50.934;6.934;2022-12-08T00:13:59;4.90;99.90
5176;DHT22;2607;50.934;6.934;2022-12-08T00:16:25;4.90;99.90
5176;DHT22;2607;50.934;6.934;2022-12-08T00:18:50;4.90;99.90
5176;DHT22;2607;50.934;6.934;2022-12-08T00:21:16;4.80;99.90
5176;DHT22;2607;50.934;6.934;2022-12-08T00:23:41;4.80;99.90
5176;DHT22;2607;50.934;6.934;2022-12-08T00:26:07;4.80;99.90
5176;DHT22;2607;50.934;6.934;2022-12-08T00:28:33;4.90;99.90
5176;DHT22;2607;50.934;6.934;2022-12-08T00:30:59;4.80;99.90
5176;DHT22;2607;50.934;6.934;2022-12-08T00:33:31;4.80;99.90
5176;DHT22;2607;50.934;6.934;2022-12-08T00:35:56;4.80;99.90
5176;DHT22;2607;50.934;6.934;2022-12-08T00:38:22;4.80;99.90
5176;DHT22;2607;50.934;6.934;2022-12-08T00:40:47;4.80;99.90
5176;DHT22;2607;50.934;6.934;2022-12-08T00:43:13;4.80;99.90
5176;DHT22;2607;50.934;6.934;2022-12-08T00:45:39;4.80;99.90
5176;DHT22;2607;50.934;6.934;2022-12-08T00:48:05;4.80;99.90
5176;DHT22;2607;50.934;6.934;2022-12-08T00:50:31;4.80;99.90
5176;DHT22;2607;50.934;6.934;2022-12-08T00:52:56;4.80;99.90
5176;DHT22;2607;50.934;6.934;2022-12-08T00:55:22;4.80;99.90
5176;DHT22;2607;50.934;6.934;2022-12-08T00:57:47;4.80;99.90
5176;DHT22;2607;50.934;6.934;2022-12-08T01:00:13;4.80;99.90
5176;DHT22;2607;50.934;6.934;2022-12-08T01:02:40;4.80;99.90
5176;DHT22;2607;50.934;6.934;2022-12-08T01:05:05;4.80;99.90
5176;DHT22;2607;50.934;6.934;2022-12-08T01:07:31;4.80;99.90
5176;DHT22;2607;50.934;6.934;2022-12-08T01:09:57;4.80;99.90
5176;DHT22;2607;50.934;6.934;2022-12-08T01:12:23;4.80;99.90
5176;DHT22;2607;50.934;6.934;2022-12-08T01:14:48;4.80;99.90
5176;DHT22;2607;50.934;6.934;2022-12-08T01:17:14;4.80;99.90
5176;DHT22;2607;50.934;6.934;2022-12-08T01:19:39;4.80;99.90
5176;DHT22;2607;50.934;6.934;2022-12-08T01:22:05;4.90;99.90
5176;DHT22;2607;50.934;6.934;2022-12-08T01:24:30;4.80;99.90
5176;DHT22;2607;50.934;6.934;2022-12-08T01:26:56;4.80;99.90
5176;DHT22;2607;50.934;6.934;2022-12-08T01:29:22;4.80;99.90
5176;DHT22;2607;50.934;6.934;2022-12-08T01:31:47;4.80;99.90
5176;DHT22;2607;50.934;6.934;2022-12-08T01:34:13;4.80;99.90
5176;DHT22;2607;50.934;6.934;2022-12-08T01:36:39;4.80;99.90
5176;DHT22;2607;50.934;6.934;2022-12-08T01:39:07;4.80;99.90
5176;DHT22;2607;50.934;6.934;2022-12-08T01:41:35;4.80;99.90
5176;DHT22;2607;50.934;6.934;2022-12-08T01:46:40;4.90;99.90
5176;DHT22;2607;50.934;6.934;2022-12-08T01:49:23;4.90;99.90
5176;DHT22;2607;50.934;6.934;2022-12-08T01:54:16;4.90;99.90
5176;DHT22;2607;50.934;6.934;2022-12-08T01:56:45;4.90;99.90
5176;DHT22;2607;50.934;6.934;2022-12-08T01:59:12;4.90;99.90
5176;DHT22;2607;50.934;6.934;2022-12-08T02:01:38;4.90;99.90
5176;DHT22;2607;50.934;6.934;2022-12-08T02:04:03;4.80;99.90
5176;DHT22;2607;50.934;6.934;2022-12-08T02:06:34;4.90;99.90
5176;DHT22;2607;50.934;6.934;2022-12-08T02:09:01;4.90;99.90
5176;DHT22;2607;50.934;6.934;2022-12-08T02:11:28;4.90;99.90
5176;DHT22;2607;50.934;6.934;2022-12-08T02:13:54;4.90;99.90
5176;DHT22;2607;50.934;6.934;2022-12-08T02:24:32;4.90;99.90
5176;DHT22;2607;50.934;6.934;2022-12-08T02:27:10;4.90;99.90
5176;DHT22;2607;50.934;6.934;2022-12-08T02:32:46;4.90;99.90
5176;DHT22;2607;50.934;6.934;2022-12-08T02:38:30;4.90;99.90
5176;DHT22;2607;50.934;6.934;2022-12-08T02:41:24;4.90;99.90
5176;DHT22;2607;50.934;6.934;2022-12-08T02:46:39;4.90;99.90
5176;DHT22;2607;50.934;6.934;2022-12-08T02:49:06;4.90;99.90
5176;DHT22;2607;50.934;6.934;2022-12-08T02:51:31;4.90;99.90
5176;DHT22;2607;50.934;6.934;2022-12-08T02:53:57;5.00;99.90
5176;DHT22;2607;50.934;6.934;2022-12-08T02:59:47;5.00;99.90
5176;DHT22;2607;50.934;6.934;2022-12-08T03:02:40;5.00;99.90
5176;DHT22;2607;50.934;6.934;2022-12-08T03:08:13;5.00;99.90
5176;DHT22;2607;50.934;6.934;2022-12-08T03:10:44;5.00;99.90
5176;DHT22;2607;50.934;6.934;2022-12-08T03:13:14;5.00;99.90
5176;DHT22;2607;50.934;6.934;2022-12-08T03:15:42;5.00;99.90
5176;DHT22;2607;50.934;6.934;2022-12-08T03:18:12;4.90;99.90
5176;DHT22;2607;50.934;6.934;2022-12-08T03:20:39;4.90;99.90
5176;DHT22;2607;50.934;6.934;2022-12-08T03:23:08;4.90;99.90
5176;DHT22;2607;50.934;6.934;2022-12-08T03:25:40;4.90;99.90
5176;DHT22;2607;50.934;6.934;2022-12-08T03:28:05;4.90;99.90
5176;DHT22;2607;50.934;6.934;2022-12-08T03:30:33;4.90;99.90
5176;DHT22;2607;50.934;6.934;2022-12-08T03:33:08;4.90;99.90
5176;DHT22;2607;50.934;6.934;2022-12-08T03:35:40;4.90;99.90
5176;DHT22;2607;50.934;6.934;2022-12-08T03:38:09;4.90;99.90
5176;DHT22;2607;50.934;6.934;2022-12-08T03:40:36;4.90;99.90
5176;DHT22;2607;50.934;6.934;2022-12-08T03:43:02;4.90;99.90
5176;DHT22;2607;50.934;6.934;2022-12-08T03:45:28;4.90;99.90
5176;DHT22;2607;50.934;6.934;2022-12-08T03:47:53;4.90;99.90
5176;DHT22;2607;50.934;6.934;2022-12-08T03:50:19;4.90;99.90
5176;DHT22;2607;50.934;6.934;2022-12-08T03:52:44;4.90;99.90
5176;DHT22;2607;50.934;6.934;2022-12-08T03:55:10;4.90;99.90
5176;DHT22;2607;50.934;6.934;2022-12-08T03:57:36;5.00;99.90
5176;DHT22;2607;50.934;6.934;2022-12-08T04:00:03;4.90;99.90
5176;DHT22;2607;50.934;6.934;2022-12-08T04:02:29;5.00;99.90
5176;DHT22;2607;50.934;6.934;2022-12-08T04:04:54;5.00;99.90
5176;DHT22;2607;50.934;6.934;2022-12-08T04:07:20;5.00;99.90
5176;DHT22;2607;50.934;6.934;2022-12-08T04:09:45;5.00;99.90
5176;DHT22;2607;50.934;6.934;2022-12-08T04:12:11;5.00;99.90
5176;DHT22;2607;50.934;6.934;2022-12-08T04:14:36;5.00;99.90
5176;DHT22;2607;50.934;6.934;2022-12-08T04:17:02;4.90;99.90
5176;DHT22;2607;50.934;6.934;2022-12-08T04:19:28;5.00;99.90
5176;DHT22;2607;50.934;6.934;2022-12-08T04:21:53;4.90;99.90
5176;DHT22;2607;50.934;6.934;2022-12-08T04:24:19;4.90;99.90
5176;DHT22;2607;50.934;6.934;2022-12-08T04:26:45;4.90;99.90
5176;DHT22;2607;50.934;6.934;2022-12-08T04:29:10;4.90;99.90
5176;DHT22;2607;50.934;6.934;2022-12-08T04:31:36;4.90;99.90
5176;DHT22;2607;50.934;6.934;2022-12-08T04:34:02;4.90;99.90
5176;DHT22;2607;50.934;6.934;2022-12-08T04:36:28;4.90;99.90
5176;DHT22;2607;50.934;6.934;2022-12-08T04:38:53;4.90;99.90
5176;DHT22;2607;50.934;6.934;2022-12-08T04:41:19;4.90;99.90
5176;DHT22;2607;50.934;6.934;2022-12-08T04:43:44;4.90;99.90
5176;DHT22;2607;50.934;6.934;2022-12-08T04:46:10;4.90;99.90
5176;DHT22;2607;50.934;6.934;2022-12-08T04:48:37;4.90;99.90
5176;DHT22;2607;50.934;6.934;2022-12-08T04:51:03;4.90;99.90
5176;DHT22;2607;50.934;6.934;2022-12-08T04:53:28;4.80;99.90
5176;DHT22;2607;50.934;6.934;2022-12-08T04:55:54;4.90;99.90
5176;DHT22;2607;50.934;6.934;2022-12-08T04:58:20;4.90;99.90
5176;DHT22;2607;50.934;6.934;2022-12-08T05:00:46;4.80;99.90
5176;DHT22;2607;50.934;6.934;2022-12-08T05:03:13;4.80;99.90
5176;DHT22;2607;50.934;6.934;2022-12-08T05:05:39;4.80;99.90
5176;DHT22;2607;50.934;6.934;2022-12-08T05:08:05;4.80;99.90
5176;DHT22;2607;50.934;6.934;2022-12-08T05:10:31;4.80;99.90
5176;DHT22;2607;50.934;6.934;2022-12-08T05:12:58;4.80;99.90
5176;DHT22;2607;50.934;6.934;2022-12-08T05:15:23;4.80;99.90
5176;DHT22;2607;50.934;6.934;2022-12-08T05:17:49;4.80;99.90
5176;DHT22;2607;50.934;6.934;2022-12-08T05:20:15;4.80;99.90
5176;DHT22;2607;50.934;6.934;2022-12-08T05:22:41;4.80;99.90
5176;DHT22;2607;50.934;6.934;2022-12-08T05:25:07;4.80;99.90
5176;DHT22;2607;50.934;6.934;2022-12-08T05:27:32;4.80;99.90
5176;DHT22;2607;50.934;6.934;2022-12-08T05:29:58;4.80;99.90
5176;DHT22;2607;50.934;6.934;2022-12-08T05:32:24;4.80;99.90
5176;DHT22;2607;50.934;6.934;2022-12-08T05:34:49;4.80;99.90
5176;DHT22;2607;50.934;6.934;2022-12-08T05:37:15;4.80;99.90
5176;DHT22;2607;50.934;6.934;2022-12-08T05:39:41;4.80;99.90
5176;DHT22;2607;50.934;6.934;2022-12-08T05:42:06;4.80;99.90
5176;DHT22;2607;50.934;6.934;2022-12-08T05:44:32;4.80;99.90
5176;DHT22;2607;50.934;6.934;2022-12-08T05:46:58;4.80;99.90
5176;DHT22;2607;50.934;6.934;2022-12-08T05:49:23;4.80;99.90
5176;DHT22;2607;50.934;6.934;2022-12-08T05:51:49;4.80;99.90
5176;DHT22;2607;50.934;6.934;2022-12-08T05:54:14;4.80;99.90
5176;DHT22;2607;50.934;6.934;2022-12-08T05:56:40;4.80;99.90
5176;DHT22;2607;50.934;6.934;2022-12-08T05:59:06;4.80;99.90
5176;DHT22;2607;50.934;6.934;2022-12-08T06:01:32;4.80;99.90
5176;DHT22;2607;50.934;6.934;2022-12-08T06:03:59;4.70;99.90
5176;DHT22;2607;50.934;6.934;2022-12-08T06:06:25;4.70;99.90
5176;DHT22;2607;50.934;6.934;2022-12-08T06:08:51;4.70;99.90
5176;DHT22;2607;50.934;6.934;2022-12-08T06:11:25;4.70;99.90
5176;DHT22;2607;50.934;6.934;2022-12-08T06:13:52;4.80;99.90
5176;DHT22;2607;50.934;6.934;2022-12-08T06:16:18;4.70;99.90
5176;DHT22;2607;50.934;6.934;2022-12-08T06:18:44;4.80;99.90
5176;DHT22;2607;50.934;6.934;2022-12-08T06:21:11;4.70;99.90
5176;DHT22;2607;50.934;6.934;2022-12-08T06:23:37;4.70;99.90
5176;DHT22;2607;50.934;6.934;2022-12-08T06:26:04;4.70;99.90
5176;DHT22;2607;50.934;6.934;2022-12-08T06:28:31;4.70;99.90
5176;DHT22;2607;50.934;6.934;2022-12-08T06:30:57;4.70;99.90
5176;DHT22;2607;50.934;6.934;2022-12-08T06:33:24;4.70;99.90
5176;DHT22;2607;50.934;6.934;2022-12-08T06:35:49;4.70;99.90
5176;DHT22;2607;50.934;6.934;2022-12-08T06:38:15;4.70;99.90
5176;DHT22;2607;50.934;6.934;2022-12-08T06:40:40;4.70;99.90
5176;DHT22;2607;50.934;6.934;2022-12-08T06:43:06;4.70;99.90
5176;DHT22;2607;50.934;6.934;2022-12-08T06:45:31;4.70;99.90
5176;DHT22;2607;50.934;6.934;2022-12-08T06:47:57;4.70;99.90
5176;DHT22;2607;50.934;6.934;2022-12-08T06:50:22;4.70;99.90
5176;DHT22;2607;50.934;6.934;2022-12-08T06:52:48;4.70;99.90
5176;DHT22;2607;50.934;6.934;2022-12-08T06:55:14;4.60;99.90
5176;DHT22;2607;50.934;6.934;2022-12-08T06:57:39;4.60;99.90
5176;DHT22;2607;50.934;6.934;2022-12-08T07:00:06;4.60;99.90
5176;DHT22;2607;50.934;6.934;2022-12-08T07:02:31;4.70;99.90
5176;DHT22;2607;50.934;6.934;2022-12-08T07:04:57;4.70;99.90
5176;DHT22;2607;50.934;6.934;2022-12-08T07:07:23;4.70;99.90
5176;DHT22;2607;50.934;6.934;2022-12-08T07:09:49;4.70;99.90
5176;DHT22;2607;50.934;6.934;2022-12-08T07:12:14;4.70;99.90
5176;DHT22;2607;50.934;6.934;2022-12-08T07:14:40;4.60;99.90
5176;DHT22;2607;50.934;6.934;2022-12-08T07:17:05;4.60;99.90
5176;DHT22;2607;50.934;6.934;2022-12-08T07:19:31;4.70;99.90
5176;DHT22;2607;50.934;6.934;2022-12-08T07:21:57;4.60;99.90
5176;DHT22;2607;50.934;6.934;2022-12-08T07:24:23;4.70;99.90
5176;DHT22;2607;50.934;6.934;2022-12-08T07:26:48;4.60;99.90
5176;DHT22;2607;50.934;6.934;2022-12-08T07:29:14;4.60;99.90
5176;DHT22;2607;50.934;6.934;2022-12-08T07:31:39;4.70;99.90
5176;DHT22;2607;50.934;6.934;2022-12-08T07:34:05;4.60;99.90
5176;DHT22;2607;50.934;6.934;2022-12-08T07:36:31;4.60;99.90
5176;DHT22;2607;50.934;6.934;2022-12-08T07:38:57;4.70;99.90
5176;DHT22;2607;50.934;6.934;2022-12-08T07:41:24;4.60;99.90
5176;DHT22;2607;50.934;6.934;2022-12-08T07:43:51;4.60;99.90
5176;DHT22;2607;50.934;6.934;2022-12-08T07:46:20;4.60;99.90
5176;DHT22;2607;50.934;6.934;2022-12-08T07:48:46;4.70;99.90
5176;DHT22;2607;50.934;6.934;2022-12-08T07:51:13;4.70;99.90
5176;DHT22;2607;50.934;6.934;2022-12-08T07:53:41;4.70;99.90
5176;DHT22;2607;50.934;6.934;2022-12-08T07:56:08;4.70;99.90
5176;DHT22;2607;50.934;6.934;2022-12-08T07:58:33;4.60;99.90
5176;DHT22;2607;50.934;6.934;2022-12-08T08:00:59;4.60;99.90
5176;DHT22;2607;50.934;6.934;2022-12-08T08:03:25;4.60;99.90
5176;DHT22;2607;50.934;6.934;2022-12-08T08:05:50;4.60;99.90
5176;DHT22;2607;50.934;6.934;2022-12-08T08:08:17;4.60;99.90
5176;DHT22;2607;50.934;6.934;2022-12-08T08:10:43;4.50;99.90
5176;DHT22;2607;50.934;6.934;2022-12-08T08:13:09;4.50;99.90
5176;DHT22;2607;50.934;6.934;2022-12-08T08:15:34;4.50;99.90
5176;DHT22;2607;50.934;6.934;2022-12-08T08:18:00;4.50;99.90
5176;DHT22;2607;50.934;6.934;2022-12-08T08:20:26;4.50;99.90
5176;DHT22;2607;50.934;6.934;2022-12-08T08:22:51;4.50;99.90
5176;DHT22;2607;50.934;6.934;2022-12-08T08:25:19;4.50;99.90
5176;DHT22;2607;50.934;6.934;2022-12-08T08:27:46;4.60;99.90
5176;DHT22;2607;50.934;6.934;2022-12-08T08:30:13;4.50;99.90
5176;DHT22;2607;50.934;6.934;2022-12-08T08:32:39;4.50;99.90
5176;DHT22;2607;50.934;6.934;2022-12-08T08:35:05;4.50;99.90
5176;DHT22;2607;50.934;6.934;2022-12-08T08:37:30;4.50;99.90
5176;DHT22;2607;50.934;6.934;2022-12-08T08:39:56;4.50;99.90
5176;DHT22;2607;50.934;6.934;2022-12-08T08:42:21;4.50;99.90
5176;DHT22;2607;50.934;6.934;2022-12-08T08:44:47;4.50;99.90
5176;DHT22;2607;50.934;6.934;2022-12-08T08:47:13;4.50;99.90
5176;DHT22;2607;50.934;6.934;2022-12-08T08:49:38;4.50;99.90
5176;DHT22;2607;50.934;6.934;2022-12-08T08:52:04;4.50;99.90
5176;DHT22;2607;50.934;6.934;2022-12-08T08:54:30;4.50;99.90
5176;DHT22;2607;50.934;6.934;2022-12-08T08:57:00;4.50;99.90
5176;DHT22;2607;50.934;6.934;2022-12-08T08:59:26;4.50;99.90
5176;DHT22;2607;50.934;6.934;2022-12-08T09:01:52;4.50;99.90
5176;DHT22;2607;50.934;6.934;2022-12-08T09:04:19;4.60;99.90
5176;DHT22;2607;50.934;6.934;2022-12-08T09:06:44;4.50;99.90
5176;DHT22;2607;50.934;6.934;2022-12-08T09:09:10;4.50;99.90
5176;DHT22;2607;50.934;6.934;2022-12-08T09:11:36;4.60;99.90
5176;DHT22;2607;50.934;6.934;2022-12-08T09:14:02;4.60;99.90
5176;DHT22;2607;50.934;6.934;2022-12-08T09:16:28;4.50;99.90
5176;DHT22;2607;50.934;6.934;2022-12-08T09:18:53;4.50;99.90
5176;DHT22;2607;50.934;6.934;2022-12-08T09:21:22;4.50;99.90
5176;DHT22;2607;50.934;6.934;2022-12-08T09:23:49;4.50;99.90
5176;DHT22;2607;50.934;6.934;2022-12-08T09:26:15;4.50;99.90
5176;DHT22;2607;50.934;6.934;2022-12-08T09:28:41;4.50;99.90
5176;DHT22;2607;50.934;6.934;2022-12-08T09:31:14;4.50;99.90
5176;DHT22;2607;50.934;6.934;2022-12-08T09:33:40;4.60;99.90
5176;DHT22;2607;50.934;6.934;2022-12-08T09:36:06;4.50;99.90
5176;DHT22;2607;50.934;6.934;2022-12-08T09:38:32;4.60;99.90
5176;DHT22;2607;50.934;6.934;2022-12-08T09:40:58;4.60;99.90
5176;DHT22;2607;50.934;6.934;2022-12-08T09:46:05;4.60;99.90
5176;DHT22;2607;50.934;6.934;2022-12-08T09:48:38;4.60;99.90
5176;DHT22;2607;50.934;6.934;2022-12-08T09:51:07;4.60;99.90
5176;DHT22;2607;50.934;6.934;2022-12-08T09:53:34;4.70;99.90
5176;DHT22;2607;50.934;6.934;2022-12-08T10:01:02;4.60;99.90
5176;DHT22;2607;50.934;6.934;2022-12-08T10:03:29;4.60;99.90
5176;DHT22;2607;50.934;6.934;2022-12-08T10:06:09;4.60;99.90
5176;DHT22;2607;50.934;6.934;2022-12-08T10:11:28;4.60;99.90
5176;DHT22;2607;50.934;6.934;2022-12-08T10:14:18;4.60;99.90
5176;DHT22;2607;50.934;6.934;2022-12-08T10:16:49;4.60;99.90
5176;DHT22;2607;50.934;6.934;2022-12-08T10:19:23;4.60;99.90
5176;DHT22;2607;50.934;6.934;2022-12-08T10:21:50;4.60;99.90
5176;DHT22;2607;50.934;6.934;2022-12-08T10:24:37;4.60;99.90
5176;DHT22;2607;50.934;6.934;2022-12-08T10:27:09;4.60;99.90
5176;DHT22;2607;50.934;6.934;2022-12-08T10:29:36;4.60;99.90
5176;DHT22;2607;50.934;6.934;2022-12-08T10:32:12;4.60;99.90
5176;DHT22;2607;50.934;6.934;2022-12-08T10:37:23;4.60;99.90
5176;DHT22;2607;50.934;6.934;2022-12-08T10:40:01;4.60;99.90
5176;DHT22;2607;50.934;6.934;2022-12-08T10:42:34;4.60;99.90
5176;DHT22;2607;50.934;6.934;2022-12-08T10:47:37;4.70;99.90
5176;DHT22;2607;50.934;6.934;2022-12-08T10:50:15;4.60;99.90
5176;DHT22;2607;50.934;6.934;2022-12-08T10:52:42;4.60;99.90
5176;DHT22;2607;50.934;6.934;2022-12-08T10:55:17;4.70;99.90
5176;DHT22;2607;50.934;6.934;2022-12-08T10:57:43;4.70;99.90
5176;DHT22;2607;50.934;6.934;2022-12-08T11:00:17;4.80;99.90
5176;DHT22;2607;50.934;6.934;2022-12-08T11:03:00;4.80;99.90
5176;DHT22;2607;50.934;6.934;2022-12-08T11:05:34;4.80;99.90
5176;DHT22;2607;50.934;6.934;2022-12-08T11:08:00;4.80;99.90
5176;DHT22;2607;50.934;6.934;2022-12-08T11:10:35;4.80;99.90
5176;DHT22;2607;50.934;6.934;2022-12-08T11:13:04;4.80;99.90
5176;DHT22;2607;50.934;6.934;2022-12-08T11:15:37;4.80;99.90
5176;DHT22;2607;50.934;6.934;2022-12-08T11:18:11;4.80;99.90
5176;DHT22;2607;50.934;6.934;2022-12-08T11:20:44;4.90;99.90
5176;DHT22;2607;50.934;6.934;2022-12-08T11:23:22;4.80;99.90
5176;DHT22;2607;50.934;6.934;2022-12-08T11:25:48;4.70;99.90
5176;DHT22;2607;50.934;6.934;2022-12-08T11:28:16;4.60;99.90
5176;DHT22;2607;50.934;6.934;2022-12-08T11:30:47;4.60;99.90
5176;DHT22;2607;50.934;6.934;2022-12-08T11:35:50;4.50;99.90
5176;DHT22;2607;50.934;6.934;2022-12-08T11:38:19;4.50;99.90
5176;DHT22;2607;50.934;6.934;2022-12-08T11:40:48;4.50;99.90
5176;DHT22;2607;50.934;6.934;2022-12-08T11:46:02;4.40;99.90
5176;DHT22;2607;50.934;6.934;2022-12-08T11:48:30;4.40;99.90
5176;DHT22;2607;50.934;6.934;2022-12-08T11:51:11;4.40;99.90
5176;DHT22;2607;50.934;6.934;2022-12-08T11:54:43;4.30;99.90
5176;DHT22;2607;50.934;6.934;2022-12-08T11:56:55;4.40;99.90
5176;DHT22;2607;50.934;6.934;2022-12-08T11:59:39;4.40;99.90
5176;DHT22;2607;50.934;6.934;2022-12-08T12:02:19;4.50;99.90
5176;DHT22;2607;50.934;6.934;2022-12-08T12:05:03;4.50;99.90
5176;DHT22;2607;50.934;6.934;2022-12-08T12:10:29;4.50;99.90
5176;DHT22;2607;50.934;6.934;2022-12-08T12:18:44;4.60;99.90
5176;DHT22;2607;50.934;6.934;2022-12-08T12:24:00;4.70;99.90
5176;DHT22;2607;50.934;6.934;2022-12-08T12:26:29;4.80;99.90
5176;DHT22;2607;50.934;6.934;2022-12-08T12:28:59;4.80;99.90
5176;DHT22;2607;50.934;6.934;2022-12-08T12:31:41;4.80;99.90
5176;DHT22;2607;50.934;6.934;2022-12-08T12:34:15;4.90;99.90
5176;DHT22;2607;50.934;6.934;2022-12-08T12:37:06;4.90;99.90
5176;DHT22;2607;50.934;6.934;2022-12-08T12:45:30;5.00;99.90
5176;DHT22;2607;50.934;6.934;2022-12-08T12:55:55;5.10;99.90
5176;DHT22;2607;50.934;6.934;2022-12-08T12:58:32;5.20;99.90
5176;DHT22;2607;50.934;6.934;2022-12-08T13:01:42;5.20;99.90
5176;DHT22;2607;50.934;6.934;2022-12-08T13:04:11;5.20;99.90
5176;DHT22;2607;50.934;6.934;2022-12-08T13:06:43;5.20;99.90
5176;DHT22;2607;50.934;6.934;2022-12-08T13:09:21;5.20;99.90
5176;DHT22;2607;50.934;6.934;2022-12-08T13:11:53;5.20;99.90
5176;DHT22;2607;50.934;6.934;2022-12-08T13:14:27;5.30;99.90
5176;DHT22;2607;50.934;6.934;2022-12-08T13:16:55;5.30;99.90
5176;DHT22;2607;50.934;6.934;2022-12-08T13:19:22;5.30;99.90
5176;DHT22;2607;50.934;6.934;2022-12-08T13:21:47;5.30;99.90
5176;DHT22;2607;50.934;6.934;2022-12-08T13:26:49;5.30;99.90
5176;DHT22;2607;50.934;6.934;2022-12-08T13:29:21;5.30;99.90
5176;DHT22;2607;50.934;6.934;2022-12-08T13:31:58;5.30;99.90
5176;DHT22;2607;50.934;6.934;2022-12-08T13:44:37;5.20;99.90
5176;DHT22;2607;50.934;6.934;2022-12-08T13:47:05;5.20;99.90
5176;DHT22;2607;50.934;6.934;2022-12-08T13:49:38;5.30;99.90
5176;DHT22;2607;50.934;6.934;2022-12-08T13:52:15;5.20;99.90
5176;DHT22;2607;50.934;6.934;2022-12-08T13:54:43;5.20;99.90
5176;DHT22;2607;50.934;6.934;2022-12-08T13:57:23;5.20;99.90
5176;DHT22;2607;50.934;6.934;2022-12-08T13:59:50;5.20;99.90
5176;DHT22;2607;50.934;6.934;2022-12-08T14:02:25;5.10;99.90
5176;DHT22;2607;50.934;6.934;2022-12-08T14:04:51;5.10;99.90
5176;DHT22;2607;50.934;6.934;2022-12-08T14:07:17;5.10;99.90
5176;DHT22;2607;50.934;6.934;2022-12-08T14:09:44;5.10;99.90
5176;DHT22;2607;50.934;6.934;2022-12-08T14:12:25;5.10;99.90
5176;DHT22;2607;50.934;6.934;2022-12-08T14:15:03;5.10;99.90
5176;DHT22;2607;50.934;6.934;2022-12-08T14:17:31;5.10;99.90
5176;DHT22;2607;50.934;6.934;2022-12-08T14:22:31;5.10;99.90
5176;DHT22;2607;50.934;6.934;2022-12-08T14:24:58;5.10;99.90
5176;DHT22;2607;50.934;6.934;2022-12-08T14:27:26;5.10;99.90
5176;DHT22;2607;50.934;6.934;2022-12-08T14:29:58;5.10;99.90
5176;DHT22;2607;50.934;6.934;2022-12-08T14:32:38;5.10;99.90
5176;DHT22;2607;50.934;6.934;2022-12-08T14:37:35;5.10;99.90
5176;DHT22;2607;50.934;6.934;2022-12-08T14:40:58;5.10;99.90
5176;DHT22;2607;50.934;6.934;2022-12-08T14:53:52;4.90;99.90
5176;DHT22;2607;50.934;6.934;2022-12-08T14:59:26;4.90;99.90
5176;DHT22;2607;50.934;6.934;2022-12-08T15:02:10;4.80;99.90
5176;DHT22;2607;50.934;6.934;2022-12-08T15:04:41;4.80;99.90
5176;DHT22;2607;50.934;6.934;2022-12-08T15:07:22;4.80;99.90
5176;DHT22;2607;50.934;6.934;2022-12-08T15:10:09;4.80;99.90
5176;DHT22;2607;50.934;6.934;2022-12-08T15:12:35;4.80;99.90
5176;DHT22;2607;50.934;6.934;2022-12-08T15:15:14;4.80;99.90
5176;DHT22;2607;50.934;6.934;2022-12-08T15:17:56;4.80;99.90
5176;DHT22;2607;50.934;6.934;2022-12-08T15:20:44;4.80;99.90
5176;DHT22;2607;50.934;6.934;2022-12-08T15:25:45;4.70;99.90
5176;DHT22;2607;50.934;6.934;2022-12-08T15:28:13;4.70;99.90
5176;DHT22;2607;50.934;6.934;2022-12-08T15:30:39;4.70;99.90
5176;DHT22;2607;50.934;6.934;2022-12-08T15:33:05;4.70;99.90
5176;DHT22;2607;50.934;6.934;2022-12-08T15:35:31;4.70;99.90
5176;DHT22;2607;50.934;6.934;2022-12-08T15:37:57;4.70;99.90
5176;DHT22;2607;50.934;6.934;2022-12-08T15:40:22;4.70;99.90
5176;DHT22;2607;50.934;6.934;2022-12-08T15:42:50;4.70;99.90
5176;DHT22;2607;50.934;6.934;2022-12-08T15:45:16;4.70;99.90
5176;DHT22;2607;50.934;6.934;2022-12-08T15:47:43;4.70;99.90
5176;DHT22;2607;50.934;6.934;2022-12-08T15:50:17;4.70;99.90
5176;DHT22;2607;50.934;6.934;2022-12-08T15:52:43;4.70;99.90
5176;DHT22;2607;50.934;6.934;2022-12-08T15:55:13;4.70;99.90
5176;DHT22;2607;50.934;6.934;2022-12-08T15:57:38;4.70;99.90
5176;DHT22;2607;50.934;6.934;2022-12-08T16:00:05;4.70;99.90
5176;DHT22;2607;50.934;6.934;2022-12-08T16:02:30;4.70;99.90
5176;DHT22;2607;50.934;6.934;2022-12-08T16:04:56;4.60;99.90
5176;DHT22;2607;50.934;6.934;2022-12-08T16:07:27;4.60;99.90
5176;DHT22;2607;50.934;6.934;2022-12-08T16:09:53;4.60;99.90
5176;DHT22;2607;50.934;6.934;2022-12-08T16:12:22;4.50;99.90
5176;DHT22;2607;50.934;6.934;2022-12-08T16:15:07;4.50;99.90
5176;DHT22;2607;50.934;6.934;2022-12-08T16:17:33;4.50;99.90
5176;DHT22;2607;50.934;6.934;2022-12-08T16:19:59;4.50;99.90
5176;DHT22;2607;50.934;6.934;2022-12-08T16:22:30;4.40;99.90
5176;DHT22;2607;50.934;6.934;2022-12-08T16:24:58;4.50;99.90
5176;DHT22;2607;50.934;6.934;2022-12-08T16:27:28;4.40;99.90
5176;DHT22;2607;50.934;6.934;2022-12-08T16:29:55;4.40;99.90
5176;DHT22;2607;50.934;6.934;2022-12-08T16:32:21;4.40;99.90
5176;DHT22;2607;50.934;6.934;2022-12-08T16:34:47;4.40;99.90
5176;DHT22;2607;50.934;6.934;2022-12-08T16:37:25;4.40;99.90
5176;DHT22;2607;50.934;6.934;2022-12-08T16:39:52;4.30;99.90
5176;DHT22;2607;50.934;6.934;2022-12-08T16:42:24;4.30;99.90
5176;DHT22;2607;50.934;6.934;2022-12-08T16:45:20;4.30;99.90
5176;DHT22;2607;50.934;6.934;2022-12-08T16:47:57;4.20;99.90
5176;DHT22;2607;50.934;6.934;2022-12-08T16:50:28;4.20;99.90
5176;DHT22;2607;50.934;6.934;2022-12-08T16:52:57;4.20;99.90
5176;DHT22;2607;50.934;6.934;2022-12-08T16:55:23;4.20;99.90
5176;DHT22;2607;50.934;6.934;2022-12-08T16:57:49;4.20;99.90
5176;DHT22;2607;50.934;6.934;2022-12-08T17:00:17;4.10;99.90
5176;DHT22;2607;50.934;6.934;2022-12-08T17:02:44;4.10;99.90
5176;DHT22;2607;50.934;6.934;2022-12-08T17:05:11;4.10;99.90
5176;DHT22;2607;50.934;6.934;2022-12-08T17:07:39;4.10;99.90
5176;DHT22;2607;50.934;6.934;2022-12-08T17:10:08;4.10;99.90
5176;DHT22;2607;50.934;6.934;2022-12-08T17:12:34;4.10;99.90
5176;DHT22;2607;50.934;6.934;2022-12-08T17:15:02;4.10;99.90
5176;DHT22;2607;50.934;6.934;2022-12-08T17:17:28;4.10;99.90
5176;DHT22;2607;50.934;6.934;2022-12-08T17:19:53;4.10;99.90
5176;DHT22;2607;50.934;6.934;2022-12-08T17:22:19;4.10;99.90
5176;DHT22;2607;50.934;6.934;2022-12-08T17:24:45;4.10;99.90
5176;DHT22;2607;50.934;6.934;2022-12-08T17:27:10;4.10;99.90
5176;DHT22;2607;50.934;6.934;2022-12-08T17:29:36;4.10;99.90
5176;DHT22;2607;50.934;6.934;2022-12-08T17:32:02;4.10;99.90
5176;DHT22;2607;50.934;6.934;2022-12-08T17:34:27;4.10;99.90
5176;DHT22;2607;50.934;6.934;2022-12-08T17:36:53;4.10;99.90
5176;DHT22;2607;50.934;6.934;2022-12-08T17:39:18;4.10;99.90
5176;DHT22;2607;50.934;6.934;2022-12-08T17:41:44;4.10;99.90
5176;DHT22;2607;50.934;6.934;2022-12-08T17:44:12;4.10;99.90
5176;DHT22;2607;50.934;6.934;2022-12-08T17:46:38;4.10;99.90
5176;DHT22;2607;50.934;6.934;2022-12-08T17:49:16;4.10;99.90
5176;DHT22;2607;50.934;6.934;2022-12-08T17:51:41;4.10;99.90
5176;DHT22;2607;50.934;6.934;2022-12-08T17:54:07;4.10;99.90
5176;DHT22;2607;50.934;6.934;2022-12-08T17:56:32;4.00;99.90
5176;DHT22;2607;50.934;6.934;2022-12-08T17:58:58;4.00;99.90
5176;DHT22;2607;50.934;6.934;2022-12-08T18:01:26;4.00;99.90
5176;DHT22;2607;50.934;6.934;2022-12-08T18:03:52;4.00;99.90
5176;DHT22;2607;50.934;6.934;2022-12-08T18:06:17;4.00;99.90
5176;DHT22;2607;50.934;6.934;2022-12-08T18:08:43;3.90;99.90
5176;DHT22;2607;50.934;6.934;2022-12-08T18:11:17;3.90;99.90
5176;DHT22;2607;50.934;6.934;2022-12-08T18:13:44;3.90;99.90
5176;DHT22;2607;50.934;6.934;2022-12-08T18:16:09;3.80;99.90